sensor_id;sensor_type;location;lat;lon;timestamp;P1;durP1;ratioP1;P2;durP2;ratioP2
32876;SDS011;19226;51.600;8.034;2023-04-03T00:01:08;4.90;;;1.65;;
32876;SDS011;19226;51.600;8.034;2023-04-03T00:03:53;5.20;;;1.73;;
32876;SDS011;19226;51.600;8.034;2023-04-03T00:06:38;2.63;;;1.38;;
32876;SDS011;19226;51.600;8.034;2023-04-03T00:09:23;9.75;;;1.92;;
32876;SDS011;19226;51.600;8.034;2023-04-03T00:12:08;2.53;;;1.40;;
32876;SDS011;19226;51.600;8.034;2023-04-03T00:14:52;5.30;;;1.90;;
32876;SDS011;19226;51.600;8.034;2023-04-03T00:17:40;6.50;;;1.73;;
32876;SDS011;19226;51.600;8.034;2023-04-03T00:20:24;3.00;;;1.80;;
32876;SDS011;19226;51.600;8.034;2023-04-03T00:23:10;4.00;;;1.42;;
32876;SDS011;19226;51.600;8.034;2023-04-03T00:25:54;2.88;;;2.00;;
32876;SDS011;19226;51.600;8.034;2023-04-03T00:28:39;5.60;;;1.92;;
32876;SDS011;19226;51.600;8.034;2023-04-03T00:31:23;5.55;;;2.10;;
32876;SDS011;19226;51.600;8.034;2023-04-03T00:34:08;5.18;;;1.70;;
32876;SDS011;19226;51.600;8.034;2023-04-03T00:36:52;3.65;;;1.83;;
32876;SDS011;19226;51.600;8.034;2023-04-03T00:39:37;6.88;;;2.28;;
32876;SDS011;19226;51.600;8.034;2023-04-03T00:42:22;8.65;;;1.70;;
32876;SDS011;19226;51.600;8.034;2023-04-03T00:47:57;4.78;;;1.73;;
32876;SDS011;19226;51.600;8.034;2023-04-03T00:50:43;9.88;;;1.58;;
32876;SDS011;19226;51.600;8.034;2023-04-03T00:53:30;2.15;;;1.45;;
32876;SDS011;19226;51.600;8.034;2023-04-03T00:56:21;3.47;;;1.92;;
32876;SDS011;19226;51.600;8.034;2023-04-03T00:59:15;3.30;;;2.03;;
32876;SDS011;19226;51.600;8.034;2023-04-03T01:02:06;2.80;;;1.60;;
32876;SDS011;19226;51.600;8.034;2023-04-03T01:04:50;6.95;;;1.80;;
32876;SDS011;19226;51.600;8.034;2023-04-03T01:07:35;4.07;;;1.77;;
32876;SDS011;19226;51.600;8.034;2023-04-03T01:10:20;8.68;;;1.80;;
32876;SDS011;19226;51.600;8.034;2023-04-03T01:16:11;4.47;;;1.60;;
32876;SDS011;19226;51.600;8.034;2023-04-03T01:18:55;5.55;;;2.03;;
32876;SDS011;19226;51.600;8.034;2023-04-03T01:24:36;2.38;;;1.52;;
32876;SDS011;19226;51.600;8.034;2023-04-03T01:27:27;2.90;;;1.70;;
32876;SDS011;19226;51.600;8.034;2023-04-03T01:30:12;3.40;;;1.73;;
32876;SDS011;19226;51.600;8.034;2023-04-03T01:33:00;6.60;;;2.00;;
32876;SDS011;19226;51.600;8.034;2023-04-03T01:35:44;5.47;;;1.90;;
32876;SDS011;19226;51.600;8.034;2023-04-03T01:38:30;3.75;;;1.80;;
32876;SDS011;19226;51.600;8.034;2023-04-03T01:41:14;3.70;;;1.63;;
32876;SDS011;19226;51.600;8.034;2023-04-03T01:44:00;2.05;;;1.70;;
32876;SDS011;19226;51.600;8.034;2023-04-03T01:46:45;6.82;;;2.17;;
32876;SDS011;19226;51.600;8.034;2023-04-03T01:49:30;6.78;;;2.03;;
32876;SDS011;19226;51.600;8.034;2023-04-03T01:52:14;6.93;;;2.38;;
32876;SDS011;19226;51.600;8.034;2023-04-03T01:54:59;8.25;;;2.13;;
32876;SDS011;19226;51.600;8.034;2023-04-03T01:57:43;2.47;;;1.80;;
32876;SDS011;19226;51.600;8.034;2023-04-03T02:00:28;6.40;;;1.80;;
32876;SDS011;19226;51.600;8.034;2023-04-03T02:03:13;3.08;;;1.58;;
32876;SDS011;19226;51.600;8.034;2023-04-03T02:05:59;4.57;;;1.95;;
32876;SDS011;19226;51.600;8.034;2023-04-03T02:08:43;6.97;;;1.85;;
32876;SDS011;19226;51.600;8.034;2023-04-03T02:11:28;5.47;;;2.05;;
32876;SDS011;19226;51.600;8.034;2023-04-03T02:14:12;5.85;;;1.75;;
32876;SDS011;19226;51.600;8.034;2023-04-03T02:16:57;5.60;;;2.10;;
32876;SDS011;19226;51.600;8.034;2023-04-03T02:19:41;9.00;;;1.70;;
32876;SDS011;19226;51.600;8.034;2023-04-03T02:22:29;4.43;;;1.80;;
32876;SDS011;19226;51.600;8.034;2023-04-03T02:25:14;4.90;;;1.83;;
32876;SDS011;19226;51.600;8.034;2023-04-03T02:27:59;4.00;;;1.90;;
32876;SDS011;19226;51.600;8.034;2023-04-03T02:30:44;3.00;;;1.70;;
32876;SDS011;19226;51.600;8.034;2023-04-03T02:33:28;6.10;;;2.10;;
32876;SDS011;19226;51.600;8.034;2023-04-03T02:36:13;3.35;;;2.10;;
32876;SDS011;19226;51.600;8.034;2023-04-03T02:39:00;4.78;;;2.42;;
32876;SDS011;19226;51.600;8.034;2023-04-03T02:41:46;4.25;;;1.83;;
32876;SDS011;19226;51.600;8.034;2023-04-03T02:44:36;6.32;;;2.10;;
32876;SDS011;19226;51.600;8.034;2023-04-03T02:47:20;3.08;;;1.88;;
32876;SDS011;19226;51.600;8.034;2023-04-03T02:50:05;2.95;;;1.67;;
32876;SDS011;19226;51.600;8.034;2023-04-03T02:52:50;2.88;;;1.70;;
32876;SDS011;19226;51.600;8.034;2023-04-03T02:55:35;8.23;;;2.20;;
32876;SDS011;19226;51.600;8.034;2023-04-03T02:58:19;5.30;;;2.03;;
32876;SDS011;19226;51.600;8.034;2023-04-03T03:01:03;7.15;;;2.03;;
32876;SDS011;19226;51.600;8.034;2023-04-03T03:03:48;5.82;;;1.92;;
32876;SDS011;19226;51.600;8.034;2023-04-03T03:06:33;4.65;;;2.35;;
32876;SDS011;19226;51.600;8.034;2023-04-03T03:09:17;5.43;;;1.70;;
32876;SDS011;19226;51.600;8.034;2023-04-03T03:12:02;5.40;;;2.30;;
32876;SDS011;19226;51.600;8.034;2023-04-03T03:14:47;6.10;;;1.88;;
32876;SDS011;19226;51.600;8.034;2023-04-03T03:17:32;6.90;;;2.03;;
32876;SDS011;19226;51.600;8.034;2023-04-03T03:20:17;7.57;;;2.30;;
32876;SDS011;19226;51.600;8.034;2023-04-03T03:23:02;6.68;;;2.25;;
32876;SDS011;19226;51.600;8.034;2023-04-03T03:25:48;5.13;;;2.17;;
32876;SDS011;19226;51.600;8.034;2023-04-03T03:28:33;4.55;;;2.20;;
32876;SDS011;19226;51.600;8.034;2023-04-03T03:31:18;6.03;;;2.05;;
32876;SDS011;19226;51.600;8.034;2023-04-03T03:34:03;10.23;;;2.45;;
32876;SDS011;19226;51.600;8.034;2023-04-03T03:36:47;6.80;;;2.30;;
32876;SDS011;19226;51.600;8.034;2023-04-03T03:39:32;7.57;;;2.28;;
32876;SDS011;19226;51.600;8.034;2023-04-03T03:42:16;4.85;;;2.40;;
32876;SDS011;19226;51.600;8.034;2023-04-03T03:45:01;5.40;;;2.10;;
32876;SDS011;19226;51.600;8.034;2023-04-03T03:47:46;4.32;;;2.00;;
32876;SDS011;19226;51.600;8.034;2023-04-03T03:50:30;3.50;;;2.00;;
32876;SDS011;19226;51.600;8.034;2023-04-03T03:53:15;6.03;;;2.40;;
32876;SDS011;19226;51.600;8.034;2023-04-03T03:56:00;5.88;;;2.63;;
32876;SDS011;19226;51.600;8.034;2023-04-03T03:58:47;3.63;;;2.38;;
32876;SDS011;19226;51.600;8.034;2023-04-03T04:01:33;5.20;;;2.13;;
32876;SDS011;19226;51.600;8.034;2023-04-03T04:04:17;6.25;;;2.15;;
32876;SDS011;19226;51.600;8.034;2023-04-03T04:07:02;8.57;;;2.40;;
32876;SDS011;19226;51.600;8.034;2023-04-03T04:09:48;4.93;;;2.97;;
32876;SDS011;19226;51.600;8.034;2023-04-03T04:12:33;7.68;;;2.50;;
32876;SDS011;19226;51.600;8.034;2023-04-03T04:15:19;6.32;;;3.65;;
32876;SDS011;19226;51.600;8.034;2023-04-03T04:18:06;9.13;;;2.60;;
32876;SDS011;19226;51.600;8.034;2023-04-03T04:20:51;13.00;;;2.67;;
32876;SDS011;19226;51.600;8.034;2023-04-03T04:23:36;7.90;;;2.33;;
32876;SDS011;19226;51.600;8.034;2023-04-03T04:26:21;9.68;;;2.90;;
32876;SDS011;19226;51.600;8.034;2023-04-03T04:29:05;5.85;;;2.50;;
32876;SDS011;19226;51.600;8.034;2023-04-03T04:31:52;4.20;;;2.28;;
32876;SDS011;19226;51.600;8.034;2023-04-03T04:34:38;5.32;;;2.83;;
32876;SDS011;19226;51.600;8.034;2023-04-03T04:37:23;7.13;;;2.85;;
32876;SDS011;19226;51.600;8.034;2023-04-03T04:40:08;3.80;;;2.30;;
32876;SDS011;19226;51.600;8.034;2023-04-03T04:42:53;4.60;;;2.92;;
32876;SDS011;19226;51.600;8.034;2023-04-03T04:45:38;5.40;;;2.90;;
32876;SDS011;19226;51.600;8.034;2023-04-03T04:48:22;12.15;;;4.38;;
32876;SDS011;19226;51.600;8.034;2023-04-03T04:51:07;23.45;;;6.68;;
32876;SDS011;19226;51.600;8.034;2023-04-03T04:53:54;13.73;;;4.38;;
32876;SDS011;19226;51.600;8.034;2023-04-03T04:56:39;25.98;;;7.90;;
32876;SDS011;19226;51.600;8.034;2023-04-03T04:59:24;8.90;;;2.95;;
32876;SDS011;19226;51.600;8.034;2023-04-03T05:02:12;8.80;;;3.67;;
32876;SDS011;19226;51.600;8.034;2023-04-03T05:04:58;6.32;;;2.60;;
32876;SDS011;19226;51.600;8.034;2023-04-03T05:07:46;10.93;;;2.90;;
32876;SDS011;19226;51.600;8.034;2023-04-03T05:10:31;8.40;;;2.65;;
32876;SDS011;19226;51.600;8.034;2023-04-03T05:13:16;4.88;;;2.33;;
32876;SDS011;19226;51.600;8.034;2023-04-03T05:16:01;10.02;;;2.00;;
32876;SDS011;19226;51.600;8.034;2023-04-03T05:18:46;6.20;;;2.17;;
32876;SDS011;19226;51.600;8.034;2023-04-03T05:24:25;9.90;;;2.35;;
32876;SDS011;19226;51.600;8.034;2023-04-03T05:27:10;12.40;;;3.03;;
32876;SDS011;19226;51.600;8.034;2023-04-03T05:29:58;7.60;;;2.90;;
32876;SDS011;19226;51.600;8.034;2023-04-03T05:32:43;6.57;;;2.38;;
32876;SDS011;19226;51.600;8.034;2023-04-03T05:35:51;7.65;;;2.30;;
32876;SDS011;19226;51.600;8.034;2023-04-03T05:38:43;14.05;;;2.78;;
32876;SDS011;19226;51.600;8.034;2023-04-03T05:41:28;9.55;;;2.40;;
32876;SDS011;19226;51.600;8.034;2023-04-03T05:44:13;7.13;;;2.05;;
32876;SDS011;19226;51.600;8.034;2023-04-03T05:47:00;7.65;;;2.40;;
32876;SDS011;19226;51.600;8.034;2023-04-03T05:49:45;9.70;;;2.83;;
32876;SDS011;19226;51.600;8.034;2023-04-03T05:52:36;8.32;;;2.78;;
32876;SDS011;19226;51.600;8.034;2023-04-03T05:55:22;6.63;;;2.35;;
32876;SDS011;19226;51.600;8.034;2023-04-03T05:58:07;6.30;;;2.30;;
32876;SDS011;19226;51.600;8.034;2023-04-03T06:00:51;12.38;;;2.60;;
32876;SDS011;19226;51.600;8.034;2023-04-03T06:03:36;8.93;;;2.75;;
32876;SDS011;19226;51.600;8.034;2023-04-03T06:06:20;7.93;;;2.17;;
32876;SDS011;19226;51.600;8.034;2023-04-03T06:09:05;13.52;;;2.85;;
32876;SDS011;19226;51.600;8.034;2023-04-03T06:11:50;5.97;;;2.47;;
32876;SDS011;19226;51.600;8.034;2023-04-03T06:14:41;4.18;;;2.40;;
32876;SDS011;19226;51.600;8.034;2023-04-03T06:17:25;6.90;;;2.10;;
32876;SDS011;19226;51.600;8.034;2023-04-03T06:20:11;6.10;;;2.65;;
32876;SDS011;19226;51.600;8.034;2023-04-03T06:22:56;4.88;;;2.75;;
32876;SDS011;19226;51.600;8.034;2023-04-03T06:25:41;8.38;;;2.50;;
32876;SDS011;19226;51.600;8.034;2023-04-03T06:28:26;10.43;;;2.17;;
32876;SDS011;19226;51.600;8.034;2023-04-03T06:31:10;4.72;;;2.08;;
32876;SDS011;19226;51.600;8.034;2023-04-03T06:33:55;4.43;;;2.25;;
32876;SDS011;19226;51.600;8.034;2023-04-03T06:36:40;3.70;;;2.47;;
32876;SDS011;19226;51.600;8.034;2023-04-03T06:39:25;7.65;;;2.72;;
32876;SDS011;19226;51.600;8.034;2023-04-03T06:42:11;8.18;;;2.10;;
32876;SDS011;19226;51.600;8.034;2023-04-03T06:45:04;6.35;;;2.00;;
32876;SDS011;19226;51.600;8.034;2023-04-03T06:47:50;5.53;;;2.35;;
32876;SDS011;19226;51.600;8.034;2023-04-03T06:50:34;6.53;;;2.22;;
32876;SDS011;19226;51.600;8.034;2023-04-03T06:53:19;6.63;;;2.08;;
32876;SDS011;19226;51.600;8.034;2023-04-03T06:56:04;7.50;;;2.15;;
32876;SDS011;19226;51.600;8.034;2023-04-03T06:58:49;9.63;;;2.58;;
32876;SDS011;19226;51.600;8.034;2023-04-03T07:01:34;6.30;;;2.38;;
32876;SDS011;19226;51.600;8.034;2023-04-03T07:04:19;5.95;;;2.00;;
32876;SDS011;19226;51.600;8.034;2023-04-03T07:07:06;3.80;;;2.20;;
32876;SDS011;19226;51.600;8.034;2023-04-03T07:09:51;5.75;;;2.40;;
32876;SDS011;19226;51.600;8.034;2023-04-03T07:12:35;3.40;;;2.17;;
32876;SDS011;19226;51.600;8.034;2023-04-03T07:15:21;8.50;;;2.42;;
32876;SDS011;19226;51.600;8.034;2023-04-03T07:18:06;10.55;;;2.83;;
32876;SDS011;19226;51.600;8.034;2023-04-03T07:20:50;4.03;;;1.83;;
32876;SDS011;19226;51.600;8.034;2023-04-03T07:23:35;6.70;;;2.20;;
32876;SDS011;19226;51.600;8.034;2023-04-03T07:26:20;6.57;;;1.80;;
32876;SDS011;19226;51.600;8.034;2023-04-03T07:29:05;13.77;;;2.47;;
32876;SDS011;19226;51.600;8.034;2023-04-03T07:31:50;10.20;;;1.60;;
32876;SDS011;19226;51.600;8.034;2023-04-03T07:34:35;4.28;;;2.25;;
32876;SDS011;19226;51.600;8.034;2023-04-03T07:37:20;4.20;;;1.98;;
32876;SDS011;19226;51.600;8.034;2023-04-03T07:40:05;9.07;;;2.45;;
32876;SDS011;19226;51.600;8.034;2023-04-03T07:42:50;6.15;;;2.38;;
32876;SDS011;19226;51.600;8.034;2023-04-03T07:45:35;6.10;;;2.55;;
32876;SDS011;19226;51.600;8.034;2023-04-03T07:48:20;7.65;;;2.10;;
32876;SDS011;19226;51.600;8.034;2023-04-03T07:51:06;6.47;;;2.10;;
32876;SDS011;19226;51.600;8.034;2023-04-03T07:53:50;6.90;;;2.28;;
32876;SDS011;19226;51.600;8.034;2023-04-03T07:56:35;7.13;;;2.45;;
32876;SDS011;19226;51.600;8.034;2023-04-03T07:59:19;4.68;;;2.40;;
32876;SDS011;19226;51.600;8.034;2023-04-03T08:02:04;6.35;;;1.95;;
32876;SDS011;19226;51.600;8.034;2023-04-03T08:04:49;10.30;;;2.28;;
32876;SDS011;19226;51.600;8.034;2023-04-03T08:07:34;8.93;;;1.90;;
32876;SDS011;19226;51.600;8.034;2023-04-03T08:10:20;5.18;;;2.10;;
32876;SDS011;19226;51.600;8.034;2023-04-03T08:13:04;6.05;;;2.28;;
32876;SDS011;19226;51.600;8.034;2023-04-03T08:15:49;5.05;;;1.90;;
32876;SDS011;19226;51.600;8.034;2023-04-03T08:18:34;2.85;;;2.00;;
32876;SDS011;19226;51.600;8.034;2023-04-03T08:21:19;6.25;;;1.90;;
32876;SDS011;19226;51.600;8.034;2023-04-03T08:24:03;8.73;;;2.17;;
32876;SDS011;19226;51.600;8.034;2023-04-03T08:26:48;6.93;;;2.28;;
32876;SDS011;19226;51.600;8.034;2023-04-03T08:29:33;5.68;;;1.90;;
32876;SDS011;19226;51.600;8.034;2023-04-03T08:32:17;5.13;;;1.98;;
32876;SDS011;19226;51.600;8.034;2023-04-03T08:35:03;8.77;;;1.95;;
32876;SDS011;19226;51.600;8.034;2023-04-03T08:37:48;4.55;;;1.73;;
32876;SDS011;19226;51.600;8.034;2023-04-03T08:40:32;5.70;;;2.47;;
32876;SDS011;19226;51.600;8.034;2023-04-03T08:49:37;4.75;;;1.60;;
32876;SDS011;19226;51.600;8.034;2023-04-03T08:55:49;7.15;;;1.60;;
32876;SDS011;19226;51.600;8.034;2023-04-03T09:01:37;2.92;;;1.40;;
32876;SDS011;19226;51.600;8.034;2023-04-03T09:04:23;4.50;;;1.60;;
32876;SDS011;19226;51.600;8.034;2023-04-03T09:07:13;3.90;;;1.67;;
32876;SDS011;19226;51.600;8.034;2023-04-03T09:10:06;4.78;;;1.55;;
32876;SDS011;19226;51.600;8.034;2023-04-03T09:13:13;2.65;;;1.40;;
32876;SDS011;19226;51.600;8.034;2023-04-03T09:22:21;5.78;;;1.60;;
32876;SDS011;19226;51.600;8.034;2023-04-03T09:25:15;2.53;;;1.50;;
32876;SDS011;19226;51.600;8.034;2023-04-03T09:28:03;7.32;;;1.60;;
32876;SDS011;19226;51.600;8.034;2023-04-03T09:30:48;3.65;;;1.65;;
32876;SDS011;19226;51.600;8.034;2023-04-03T09:33:33;2.97;;;1.38;;
32876;SDS011;19226;51.600;8.034;2023-04-03T09:39:29;1.98;;;1.00;;
32876;SDS011;19226;51.600;8.034;2023-04-03T09:42:15;2.38;;;1.30;;
32876;SDS011;19226;51.600;8.034;2023-04-03T09:45:18;4.22;;;1.10;;
32876;SDS011;19226;51.600;8.034;2023-04-03T09:51:02;2.13;;;1.20;;
32876;SDS011;19226;51.600;8.034;2023-04-03T09:53:46;1.92;;;1.38;;
32876;SDS011;19226;51.600;8.034;2023-04-03T09:56:31;5.72;;;1.50;;
32876;SDS011;19226;51.600;8.034;2023-04-03T09:59:16;2.67;;;1.23;;
32876;SDS011;19226;51.600;8.034;2023-04-03T10:04:55;5.18;;;1.00;;
32876;SDS011;19226;51.600;8.034;2023-04-03T10:07:40;3.80;;;0.85;;
32876;SDS011;19226;51.600;8.034;2023-04-03T10:10:25;2.90;;;1.10;;
32876;SDS011;19226;51.600;8.034;2023-04-03T10:13:17;1.83;;;0.98;;
32876;SDS011;19226;51.600;8.034;2023-04-03T10:16:12;2.55;;;1.00;;
32876;SDS011;19226;51.600;8.034;2023-04-03T10:19:06;1.88;;;0.80;;
32876;SDS011;19226;51.600;8.034;2023-04-03T10:22:12;3.33;;;1.23;;
32876;SDS011;19226;51.600;8.034;2023-04-03T10:25:07;2.13;;;0.95;;
32876;SDS011;19226;51.600;8.034;2023-04-03T10:28:02;3.42;;;0.90;;
32876;SDS011;19226;51.600;8.034;2023-04-03T10:36:53;2.28;;;0.98;;
32876;SDS011;19226;51.600;8.034;2023-04-03T10:43:09;5.10;;;1.25;;
32876;SDS011;19226;51.600;8.034;2023-04-03T10:46:02;2.80;;;1.10;;
32876;SDS011;19226;51.600;8.034;2023-04-03T10:57:52;2.38;;;1.05;;
32876;SDS011;19226;51.600;8.034;2023-04-03T11:00:45;2.53;;;0.80;;
32876;SDS011;19226;51.600;8.034;2023-04-03T11:03:34;1.95;;;1.05;;
32876;SDS011;19226;51.600;8.034;2023-04-03T11:06:24;5.57;;;1.50;;
32876;SDS011;19226;51.600;8.034;2023-04-03T11:15:30;4.60;;;0.90;;
32876;SDS011;19226;51.600;8.034;2023-04-03T11:18:17;2.13;;;1.45;;
32876;SDS011;19226;51.600;8.034;2023-04-03T11:21:11;5.32;;;1.35;;
32876;SDS011;19226;51.600;8.034;2023-04-03T11:24:03;0.88;;;0.80;;
32876;SDS011;19226;51.600;8.034;2023-04-03T11:26:55;1.52;;;1.00;;
32876;SDS011;19226;51.600;8.034;2023-04-03T11:29:42;2.55;;;1.00;;
32876;SDS011;19226;51.600;8.034;2023-04-03T11:38:30;4.20;;;1.20;;
32876;SDS011;19226;51.600;8.034;2023-04-03T11:41:27;2.83;;;1.25;;
32876;SDS011;19226;51.600;8.034;2023-04-03T11:44:36;4.20;;;1.13;;
32876;SDS011;19226;51.600;8.034;2023-04-03T11:48:06;6.95;;;1.10;;
32876;SDS011;19226;51.600;8.034;2023-04-03T12:01:57;5.55;;;1.35;;
32876;SDS011;19226;51.600;8.034;2023-04-03T12:04:42;5.97;;;1.52;;
32876;SDS011;19226;51.600;8.034;2023-04-03T12:08:25;2.25;;;1.45;;
32876;SDS011;19226;51.600;8.034;2023-04-03T12:19:34;3.85;;;1.15;;
32876;SDS011;19226;51.600;8.034;2023-04-03T12:22:21;3.40;;;0.95;;
32876;SDS011;19226;51.600;8.034;2023-04-03T12:25:40;1.48;;;0.77;;
32876;SDS011;19226;51.600;8.034;2023-04-03T12:28:36;5.55;;;1.42;;
32876;SDS011;19226;51.600;8.034;2023-04-03T12:31:22;1.67;;;0.93;;
32876;SDS011;19226;51.600;8.034;2023-04-03T12:37:39;2.42;;;0.85;;
32876;SDS011;19226;51.600;8.034;2023-04-03T12:47:01;2.63;;;0.93;;
32876;SDS011;19226;51.600;8.034;2023-04-03T12:49:51;3.40;;;0.85;;
32876;SDS011;19226;51.600;8.034;2023-04-03T12:52:38;2.33;;;0.95;;
32876;SDS011;19226;51.600;8.034;2023-04-03T12:58:21;3.78;;;1.10;;
32876;SDS011;19226;51.600;8.034;2023-04-03T13:01:11;5.03;;;0.90;;
32876;SDS011;19226;51.600;8.034;2023-04-03T13:03:58;3.53;;;1.52;;
32876;SDS011;19226;51.600;8.034;2023-04-03T13:06:43;2.63;;;1.10;;
32876;SDS011;19226;51.600;8.034;2023-04-03T13:09:29;2.67;;;1.05;;
32876;SDS011;19226;51.600;8.034;2023-04-03T13:12:15;2.85;;;1.02;;
32876;SDS011;19226;51.600;8.034;2023-04-03T13:15:02;4.72;;;1.17;;
32876;SDS011;19226;51.600;8.034;2023-04-03T13:18:27;4.20;;;1.40;;
32876;SDS011;19226;51.600;8.034;2023-04-03T13:21:17;4.53;;;1.70;;
32876;SDS011;19226;51.600;8.034;2023-04-03T13:24:14;2.00;;;1.10;;
32876;SDS011;19226;51.600;8.034;2023-04-03T13:26:59;3.80;;;1.15;;
32876;SDS011;19226;51.600;8.034;2023-04-03T13:29:48;1.35;;;1.02;;
32876;SDS011;19226;51.600;8.034;2023-04-03T13:32:35;3.08;;;1.20;;
32876;SDS011;19226;51.600;8.034;2023-04-03T13:35:27;2.63;;;0.93;;
32876;SDS011;19226;51.600;8.034;2023-04-03T13:41:04;5.63;;;1.15;;
32876;SDS011;19226;51.600;8.034;2023-04-03T13:50:12;2.85;;;1.02;;
32876;SDS011;19226;51.600;8.034;2023-04-03T13:53:12;4.70;;;1.30;;
32876;SDS011;19226;51.600;8.034;2023-04-03T13:56:00;5.30;;;1.25;;
32876;SDS011;19226;51.600;8.034;2023-04-03T14:04:48;1.92;;;1.00;;
32876;SDS011;19226;51.600;8.034;2023-04-03T14:07:39;6.72;;;1.40;;
32876;SDS011;19226;51.600;8.034;2023-04-03T14:10:24;4.10;;;1.00;;
32876;SDS011;19226;51.600;8.034;2023-04-03T14:13:11;6.97;;;1.30;;
32876;SDS011;19226;51.600;8.034;2023-04-03T14:16:00;1.00;;;0.70;;
32876;SDS011;19226;51.600;8.034;2023-04-03T14:18:45;3.22;;;1.23;;
32876;SDS011;19226;51.600;8.034;2023-04-03T14:21:32;5.18;;;1.20;;
32876;SDS011;19226;51.600;8.034;2023-04-03T14:24:17;2.45;;;1.05;;
32876;SDS011;19226;51.600;8.034;2023-04-03T14:27:02;2.55;;;1.27;;
32876;SDS011;19226;51.600;8.034;2023-04-03T14:29:57;3.75;;;1.55;;
32876;SDS011;19226;51.600;8.034;2023-04-03T14:32:43;3.03;;;1.45;;
32876;SDS011;19226;51.600;8.034;2023-04-03T14:35:29;1.20;;;0.75;;
32876;SDS011;19226;51.600;8.034;2023-04-03T14:38:31;1.52;;;1.30;;
32876;SDS011;19226;51.600;8.034;2023-04-03T14:41:17;2.67;;;1.30;;
32876;SDS011;19226;51.600;8.034;2023-04-03T14:44:04;6.07;;;1.23;;
32876;SDS011;19226;51.600;8.034;2023-04-03T14:46:49;6.30;;;1.92;;
32876;SDS011;19226;51.600;8.034;2023-04-03T14:49:34;5.45;;;1.27;;
32876;SDS011;19226;51.600;8.034;2023-04-03T14:52:20;5.15;;;1.48;;
32876;SDS011;19226;51.600;8.034;2023-04-03T14:55:07;12.95;;;1.52;;
32876;SDS011;19226;51.600;8.034;2023-04-03T14:57:52;4.93;;;1.58;;
32876;SDS011;19226;51.600;8.034;2023-04-03T15:00:38;4.03;;;1.45;;
32876;SDS011;19226;51.600;8.034;2023-04-03T15:03:22;4.40;;;1.20;;
32876;SDS011;19226;51.600;8.034;2023-04-03T15:06:11;1.92;;;1.13;;
32876;SDS011;19226;51.600;8.034;2023-04-03T15:08:56;2.28;;;1.20;;
32876;SDS011;19226;51.600;8.034;2023-04-03T15:11:40;8.10;;;2.60;;
32876;SDS011;19226;51.600;8.034;2023-04-03T15:14:28;7.07;;;1.42;;
32876;SDS011;19226;51.600;8.034;2023-04-03T15:17:19;1.83;;;0.90;;
32876;SDS011;19226;51.600;8.034;2023-04-03T15:20:19;1.48;;;1.17;;
32876;SDS011;19226;51.600;8.034;2023-04-03T15:23:05;2.88;;;1.17;;
32876;SDS011;19226;51.600;8.034;2023-04-03T15:25:50;2.83;;;1.20;;
32876;SDS011;19226;51.600;8.034;2023-04-03T15:28:35;2.83;;;1.35;;
32876;SDS011;19226;51.600;8.034;2023-04-03T15:31:23;7.55;;;1.90;;
32876;SDS011;19226;51.600;8.034;2023-04-03T15:34:07;9.02;;;3.00;;
32876;SDS011;19226;51.600;8.034;2023-04-03T15:36:52;4.05;;;1.05;;
32876;SDS011;19226;51.600;8.034;2023-04-03T15:39:36;2.90;;;1.58;;
32876;SDS011;19226;51.600;8.034;2023-04-03T15:42:21;5.63;;;2.80;;
32876;SDS011;19226;51.600;8.034;2023-04-03T15:45:06;5.43;;;1.60;;
32876;SDS011;19226;51.600;8.034;2023-04-03T15:47:51;4.40;;;1.20;;
32876;SDS011;19226;51.600;8.034;2023-04-03T15:50:36;3.80;;;1.33;;
32876;SDS011;19226;51.600;8.034;2023-04-03T15:53:20;2.17;;;1.40;;
32876;SDS011;19226;51.600;8.034;2023-04-03T15:56:05;1.90;;;1.23;;
32876;SDS011;19226;51.600;8.034;2023-04-03T15:58:51;4.32;;;1.10;;
32876;SDS011;19226;51.600;8.034;2023-04-03T16:01:37;3.03;;;1.20;;
32876;SDS011;19226;51.600;8.034;2023-04-03T16:04:23;1.92;;;1.30;;
32876;SDS011;19226;51.600;8.034;2023-04-03T16:07:07;4.97;;;1.67;;
32876;SDS011;19226;51.600;8.034;2023-04-03T16:09:52;4.43;;;1.42;;
32876;SDS011;19226;51.600;8.034;2023-04-03T16:12:36;4.03;;;1.65;;
32876;SDS011;19226;51.600;8.034;2023-04-03T16:15:22;9.70;;;1.20;;
32876;SDS011;19226;51.600;8.034;2023-04-03T16:18:07;2.88;;;1.38;;
32876;SDS011;19226;51.600;8.034;2023-04-03T16:20:53;2.53;;;1.30;;
32876;SDS011;19226;51.600;8.034;2023-04-03T16:23:37;3.08;;;1.40;;
32876;SDS011;19226;51.600;8.034;2023-04-03T16:26:22;1.90;;;1.00;;
32876;SDS011;19226;51.600;8.034;2023-04-03T16:29:06;2.17;;;1.25;;
32876;SDS011;19226;51.600;8.034;2023-04-03T16:31:52;5.43;;;1.77;;
32876;SDS011;19226;51.600;8.034;2023-04-03T16:34:37;2.83;;;1.52;;
32876;SDS011;19226;51.600;8.034;2023-04-03T16:37:22;1.95;;;1.38;;
32876;SDS011;19226;51.600;8.034;2023-04-03T16:40:07;3.90;;;2.03;;
32876;SDS011;19226;51.600;8.034;2023-04-03T16:42:52;1.95;;;1.52;;
32876;SDS011;19226;51.600;8.034;2023-04-03T16:45:37;2.53;;;1.42;;
32876;SDS011;19226;51.600;8.034;2023-04-03T16:48:21;2.10;;;1.50;;
32876;SDS011;19226;51.600;8.034;2023-04-03T16:51:06;4.35;;;1.42;;
32876;SDS011;19226;51.600;8.034;2023-04-03T16:53:50;6.72;;;1.55;;
32876;SDS011;19226;51.600;8.034;2023-04-03T16:56:35;2.35;;;1.40;;
32876;SDS011;19226;51.600;8.034;2023-04-03T16:59:19;5.57;;;1.75;;
32876;SDS011;19226;51.600;8.034;2023-04-03T17:02:07;5.30;;;1.55;;
32876;SDS011;19226;51.600;8.034;2023-04-03T17:04:54;4.65;;;1.40;;
32876;SDS011;19226;51.600;8.034;2023-04-03T17:07:39;3.83;;;1.08;;
32876;SDS011;19226;51.600;8.034;2023-04-03T17:10:23;3.72;;;1.20;;
32876;SDS011;19226;51.600;8.034;2023-04-03T17:13:08;2.13;;;1.40;;
32876;SDS011;19226;51.600;8.034;2023-04-03T17:15:52;3.17;;;2.17;;
32876;SDS011;19226;51.600;8.034;2023-04-03T17:18:37;2.33;;;1.35;;
32876;SDS011;19226;51.600;8.034;2023-04-03T17:21:22;3.85;;;1.77;;
32876;SDS011;19226;51.600;8.034;2023-04-03T17:24:07;2.80;;;1.13;;
32876;SDS011;19226;51.600;8.034;2023-04-03T17:26:55;2.22;;;1.40;;
32876;SDS011;19226;51.600;8.034;2023-04-03T17:29:40;1.58;;;1.17;;
32876;SDS011;19226;51.600;8.034;2023-04-03T17:32:25;3.13;;;1.38;;
32876;SDS011;19226;51.600;8.034;2023-04-03T17:35:10;6.10;;;1.52;;
32876;SDS011;19226;51.600;8.034;2023-04-03T17:37:54;3.25;;;1.30;;
32876;SDS011;19226;51.600;8.034;2023-04-03T17:40:39;2.95;;;1.35;;
32876;SDS011;19226;51.600;8.034;2023-04-03T17:43:24;9.15;;;1.55;;
32876;SDS011;19226;51.600;8.034;2023-04-03T17:46:09;2.95;;;1.33;;
32876;SDS011;19226;51.600;8.034;2023-04-03T17:48:54;3.75;;;1.83;;
32876;SDS011;19226;51.600;8.034;2023-04-03T17:51:43;2.97;;;1.50;;
32876;SDS011;19226;51.600;8.034;2023-04-03T17:54:27;2.55;;;1.33;;
32876;SDS011;19226;51.600;8.034;2023-04-03T17:57:12;1.92;;;1.20;;
32876;SDS011;19226;51.600;8.034;2023-04-03T17:59:57;4.75;;;1.45;;
32876;SDS011;19226;51.600;8.034;2023-04-03T18:02:41;6.20;;;1.67;;
32876;SDS011;19226;51.600;8.034;2023-04-03T18:05:26;2.65;;;1.50;;
32876;SDS011;19226;51.600;8.034;2023-04-03T18:08:12;2.20;;;1.60;;
32876;SDS011;19226;51.600;8.034;2023-04-03T18:10:56;3.95;;;1.60;;
32876;SDS011;19226;51.600;8.034;2023-04-03T18:13:41;6.13;;;1.95;;
32876;SDS011;19226;51.600;8.034;2023-04-03T18:16:27;4.07;;;2.70;;
32876;SDS011;19226;51.600;8.034;2023-04-03T18:19:12;7.18;;;3.17;;
32876;SDS011;19226;51.600;8.034;2023-04-03T18:21:58;4.72;;;1.98;;
32876;SDS011;19226;51.600;8.034;2023-04-03T18:24:46;3.15;;;1.63;;
32876;SDS011;19226;51.600;8.034;2023-04-03T18:27:32;5.60;;;1.40;;
32876;SDS011;19226;51.600;8.034;2023-04-03T18:30:16;1.40;;;1.20;;
32876;SDS011;19226;51.600;8.034;2023-04-03T18:33:01;7.13;;;1.38;;
32876;SDS011;19226;51.600;8.034;2023-04-03T18:35:47;4.53;;;1.60;;
32876;SDS011;19226;51.600;8.034;2023-04-03T18:38:32;2.10;;;1.88;;
32876;SDS011;19226;51.600;8.034;2023-04-03T18:41:17;3.30;;;1.63;;
32876;SDS011;19226;51.600;8.034;2023-04-03T18:44:06;4.97;;;1.73;;